Time;durP1;ratioP1;P1;durP2;ratioP2;P2;SDS_P1;SDS_P2;PMS_P1;PMS_P2;Temp;Humidity;BMP_temperature;BMP_pressure;BME280_temperature;BME280_humidity;BME280_pressure;Samples;Min_cycle;Max_cycle;Signal;HPM_P1;HPM_P2
2023/01/03 00:02:03;;;;;;;3.85;1.10;;;;;;;;;;5052960;28;20031;-35
2023/01/03 00:04:30;;;;;;;6.03;1.25;;;;;;;;;;5052990;28;20025;-35
2023/01/03 00:06:57;;;;;;;4.75;1.30;;;;;;;;;;5052946;28;20444;-35
2023/01/03 00:09:24;;;;;;;3.17;1.25;;;;;;;;;;5052843;28;20017;-35
2023/01/03 00:14:40;;;;;;;4.55;1.15;;;;;;;;;;5052790;28;20040;-35
2023/01/03 00:17:07;;;;;;;5.18;1.30;;;;;;;;;;5050323;28;20075;-35
2023/01/03 00:19:39;;;;;;;6.25;1.35;;;;;;;;;;5032540;28;20116;-35
2023/01/03 00:22:06;;;;;;;52.67;5.10;;;;;;;;;;5032207;28;20451;-34
2023/01/03 00:24:33;;;;;;;28.83;3.70;;;;;;;;;;5032266;28;20123;-35
2023/01/03 00:27:00;;;;;;;36.95;4.38;;;;;;;;;;5033170;28;20029;-36
2023/01/03 00:29:27;;;;;;;38.45;4.18;;;;;;;;;;5037887;28;20052;-34
2023/01/03 00:31:54;;;;;;;39.42;4.13;;;;;;;;;;5051819;28;20029;-35
2023/01/03 00:34:21;;;;;;;42.83;4.03;;;;;;;;;;5036496;28;20377;-34
2023/01/03 00:36:48;;;;;;;45.78;4.55;;;;;;;;;;5035932;28;20021;-34
2023/01/03 00:39:15;;;;;;;48.55;5.03;;;;;;;;;;5052002;28;20036;-34
2023/01/03 00:41:42;;;;;;;70.82;6.43;;;;;;;;;;5045539;28;20029;-35
2023/01/03 00:44:09;;;;;;;80.57;7.38;;;;;;;;;;5041203;28;20044;-35
2023/01/03 00:46:36;;;;;;;62.88;6.45;;;;;;;;;;5044331;28;20037;-35
2023/01/03 00:49:07;;;;;;;58.78;6.40;;;;;;;;;;5051136;28;20029;-35
2023/01/03 00:51:35;;;;;;;89.30;9.73;;;;;;;;;;5049984;28;20029;-34
2023/01/03 00:54:02;;;;;;;92.50;10.32;;;;;;;;;;5049746;28;20068;-35
2023/01/03 00:56:31;;;;;;;155.50;13.55;;;;;;;;;;5047586;28;20039;-34
2023/01/03 00:58:58;;;;;;;126.20;12.27;;;;;;;;;;5051831;28;20032;-34
2023/01/03 01:01:27;;;;;;;104.43;11.20;;;;;;;;;;5051922;28;20364;-34
2023/01/03 01:03:59;;;;;;;77.45;10.27;;;;;;;;;;5051892;28;20024;-34
2023/01/03 01:06:27;;;;;;;101.35;9.85;;;;;;;;;;5051965;28;20021;-34
2023/01/03 01:08:55;;;;;;;88.43;9.80;;;;;;;;;;5051834;28;20495;-35
2023/01/03 01:11:22;;;;;;;100.95;9.85;;;;;;;;;;5051940;28;20025;-35
2023/01/03 01:13:50;;;;;;;66.50;8.18;;;;;;;;;;5051805;28;20025;-35
2023/01/03 01:16:18;;;;;;;62.15;6.32;;;;;;;;;;5051803;28;20025;-35
2023/01/03 01:18:46;;;;;;;48.05;6.43;;;;;;;;;;5051842;28;20060;-34
2023/01/03 01:21:15;;;;;;;48.08;5.80;;;;;;;;;;5051748;28;20024;-35
2023/01/03 01:23:42;;;;;;;38.40;4.40;;;;;;;;;;5051844;28;20462;-35
2023/01/03 01:26:11;;;;;;;38.15;4.72;;;;;;;;;;5051724;28;20025;-35
2023/01/03 01:28:38;;;;;;;40.85;4.65;;;;;;;;;;5051755;28;20529;-34
2023/01/03 01:31:06;;;;;;;37.58;5.30;;;;;;;;;;5051663;28;20025;-35
2023/01/03 01:33:34;;;;;;;35.15;4.55;;;;;;;;;;5051688;28;20032;-34
2023/01/03 01:36:08;;;;;;;36.95;6.22;;;;;;;;;;5051765;28;20178;-34
2023/01/03 01:38:36;;;;;;;37.25;6.70;;;;;;;;;;5051593;28;20028;-35
2023/01/03 01:41:03;;;;;;;31.55;6.25;;;;;;;;;;5051560;28;20021;-35
2023/01/03 01:46:18;;;;;;;21.75;5.70;;;;;;;;;;5051482;28;20106;-34
2023/01/03 01:48:46;;;;;;;25.23;5.05;;;;;;;;;;5051623;28;20025;-35
2023/01/03 01:51:13;;;;;;;25.17;5.40;;;;;;;;;;5055399;28;20030;-35
2023/01/03 01:53:41;;;;;;;28.95;5.38;;;;;;;;;;5055399;28;20029;-34
2023/01/03 01:56:13;;;;;;;25.95;5.40;;;;;;;;;;5055547;28;20159;-35
2023/01/03 01:58:41;;;;;;;18.50;4.63;;;;;;;;;;5055406;28;20574;-34
2023/01/03 02:01:10;;;;;;;24.35;4.68;;;;;;;;;;5055169;28;20025;-34
2023/01/03 02:03:38;;;;;;;30.13;4.53;;;;;;;;;;5055274;28;20028;-35
2023/01/03 02:06:07;;;;;;;25.40;5.38;;;;;;;;;;5055267;28;20387;-34
2023/01/03 02:08:34;;;;;;;26.75;6.15;;;;;;;;;;5055052;28;20155;-34
2023/01/03 02:11:19;;;;;;;22.55;7.75;;;;;;;;;;5054981;28;20028;-34
2023/01/03 02:14:05;;;;;;;25.58;8.65;;;;;;;;;;5055057;28;20387;-35
2023/01/03 02:16:47;;;;;;;25.58;9.52;;;;;;;;;;5054913;28;20580;-35
2023/01/03 02:19:32;;;;;;;20.33;7.65;;;;;;;;;;5054740;28;20078;-34
2023/01/03 02:22:17;;;;;;;18.58;6.25;;;;;;;;;;5054953;28;20024;-35
2023/01/03 02:24:47;;;;;;;19.20;4.75;;;;;;;;;;5054879;28;20027;-35
2023/01/03 02:27:32;;;;;;;16.98;4.25;;;;;;;;;;5054855;28;20028;-34
2023/01/03 02:30:17;;;;;;;10.77;3.35;;;;;;;;;;5054649;28;20024;-34
2023/01/03 02:32:52;;;;;;;11.63;3.35;;;;;;;;;;5053195;28;20476;-35
2023/01/03 02:35:25;;;;;;;15.00;3.20;;;;;;;;;;5054686;28;20083;-35
2023/01/03 02:38:07;;;;;;;10.13;2.60;;;;;;;;;;5054637;28;20503;-34
2023/01/03 02:40:37;;;;;;;13.07;2.53;;;;;;;;;;5054514;28;20487;-34
2023/01/03 02:43:14;;;;;;;8.02;2.13;;;;;;;;;;5054594;28;20584;-34
2023/01/03 02:45:52;;;;;;;7.72;2.00;;;;;;;;;;5054379;28;20049;-34
2023/01/03 02:48:30;;;;;;;12.43;1.98;;;;;;;;;;5054476;28;20027;-34
2023/01/03 02:50:58;;;;;;;6.03;1.27;;;;;;;;;;5054305;28;20502;-34
2023/01/03 02:53:38;;;;;;;10.20;1.38;;;;;;;;;;5037957;28;20143;-34
2023/01/03 02:56:07;;;;;;;5.13;0.98;;;;;;;;;;5034358;28;20026;-34
2023/01/03 02:58:35;;;;;;;7.95;1.08;;;;;;;;;;5034408;28;20037;-34
2023/01/03 03:01:03;;;;;;;3.53;0.90;;;;;;;;;;5032942;28;20022;-34
2023/01/03 03:03:32;;;;;;;8.35;1.23;;;;;;;;;;5034273;28;20041;-34
2023/01/03 03:05:59;;;;;;;8.75;1.00;;;;;;;;;;5034128;28;20044;-34
2023/01/03 03:08:26;;;;;;;3.50;0.98;;;;;;;;;;5034183;28;20123;-34
2023/01/03 03:13:48;;;;;;;3.67;1.02;;;;;;;;;;5034010;28;20499;-34
2023/01/03 03:25:34;;;;;;;11.60;2.55;;;;;;;;;;5033780;28;20046;-34
2023/01/03 03:30:57;;;;;;;9.40;2.03;;;;;;;;;;5033629;28;20578;-34
2023/01/03 03:33:26;;;;;;;7.47;2.20;;;;;;;;;;5033575;28;20025;-34
2023/01/03 03:36:08;;;;;;;7.00;2.50;;;;;;;;;;5033711;28;20030;-34
2023/01/03 03:38:38;;;;;;;9.80;2.08;;;;;;;;;;5033660;28;20033;-34
2023/01/03 03:47:12;;;;;;;8.60;2.17;;;;;;;;;;5033315;28;20082;-34
2023/01/03 03:49:41;;;;;;;5.00;2.05;;;;;;;;;;5033331;28;20384;-34
2023/01/03 03:52:21;;;;;;;11.25;2.00;;;;;;;;;;5033228;28;20388;-34
2023/01/03 03:54:51;;;;;;;4.85;2.03;;;;;;;;;;5033295;28;20033;-34
2023/01/03 03:57:24;;;;;;;5.57;1.73;;;;;;;;;;5033089;28;20021;-34
2023/01/03 03:59:54;;;;;;;6.03;1.80;;;;;;;;;;5031705;28;20076;-34
2023/01/03 04:02:22;;;;;;;7.22;1.60;;;;;;;;;;5033140;28;20616;-34
2023/01/03 04:04:52;;;;;;;9.85;1.58;;;;;;;;;;5033109;28;20032;-34
2023/01/03 04:07:19;;;;;;;8.73;1.88;;;;;;;;;;5033002;28;20068;-34
2023/01/03 04:09:46;;;;;;;6.05;2.00;;;;;;;;;;5032876;28;20021;-34
2023/01/03 04:12:13;;;;;;;7.15;2.00;;;;;;;;;;5032540;28;20025;-34
2023/01/03 04:14:40;;;;;;;7.03;1.85;;;;;;;;;;5032925;28;20029;-34
2023/01/03 04:17:07;;;;;;;5.30;1.45;;;;;;;;;;5032861;28;20025;-34
2023/01/03 04:19:34;;;;;;;13.02;1.40;;;;;;;;;;5032716;28;20021;-34
2023/01/03 04:22:01;;;;;;;5.35;1.10;;;;;;;;;;5032740;28;20029;-34
2023/01/03 04:24:28;;;;;;;8.80;1.20;;;;;;;;;;5032779;28;20034;-34
2023/01/03 04:26:55;;;;;;;3.38;1.27;;;;;;;;;;5032769;28;20029;-34
2023/01/03 04:29:22;;;;;;;5.35;1.60;;;;;;;;;;5032579;28;20044;-34
2023/01/03 04:31:49;;;;;;;7.40;1.73;;;;;;;;;;5032504;28;20033;-34
2023/01/03 04:34:16;;;;;;;6.32;1.98;;;;;;;;;;5032496;28;20029;-34
2023/01/03 04:36:43;;;;;;;16.83;1.90;;;;;;;;;;5032533;28;20033;-34
2023/01/03 04:39:10;;;;;;;4.68;1.23;;;;;;;;;;5032430;28;20030;-34
2023/01/03 04:41:37;;;;;;;12.27;1.10;;;;;;;;;;5039706;28;20041;-35
2023/01/03 04:44:04;;;;;;;11.23;1.20;;;;;;;;;;5041198;28;20487;-34
2023/01/03 04:46:33;;;;;;;16.35;0.95;;;;;;;;;;5040822;28;20044;-34
2023/01/03 04:49:00;;;;;;;9.25;0.70;;;;;;;;;;5047875;28;20134;-34
2023/01/03 04:51:28;;;;;;;8.13;0.90;;;;;;;;;;5048826;28;20041;-34
2023/01/03 04:53:55;;;;;;;6.53;0.75;;;;;;;;;;5042762;28;20051;-34
2023/01/03 04:56:29;;;;;;;9.73;0.68;;;;;;;;;;5040741;28;20057;-34
2023/01/03 04:58:56;;;;;;;6.32;0.65;;;;;;;;;;5046317;28;20047;-34
2023/01/03 05:01:23;;;;;;;8.50;0.80;;;;;;;;;;5049699;28;20035;-34
2023/01/03 05:03:51;;;;;;;9.90;0.55;;;;;;;;;;5046000;28;20017;-34
2023/01/03 05:06:18;;;;;;;5.40;0.50;;;;;;;;;;5043090;28;20032;-34
2023/01/03 05:08:47;;;;;;;7.63;0.73;;;;;;;;;;5041585;28;20076;-34
2023/01/03 05:11:14;;;;;;;4.15;0.45;;;;;;;;;;5049354;28;20454;-34
2023/01/03 05:13:41;;;;;;;3.33;0.50;;;;;;;;;;5036154;28;20431;-34
2023/01/03 05:16:09;;;;;;;3.03;0.40;;;;;;;;;;5028837;28;20045;-35
2023/01/03 05:18:37;;;;;;;2.42;0.50;;;;;;;;;;5031603;28;20301;-34
2023/01/03 05:26:39;;;;;;;6.30;0.90;;;;;;;;;;5055880;28;20048;-34
2023/01/03 05:29:07;;;;;;;6.05;2.10;;;;;;;;;;5056020;28;20032;-34
2023/01/03 05:31:34;;;;;;;8.25;2.95;;;;;;;;;;5055863;28;20391;-34
2023/01/03 05:34:01;;;;;;;8.25;3.60;;;;;;;;;;5053866;28;20041;-34
2023/01/03 05:36:28;;;;;;;13.27;4.00;;;;;;;;;;5055655;28;20040;-34
2023/01/03 05:38:55;;;;;;;9.90;4.25;;;;;;;;;;5055562;28;20036;-34
2023/01/03 05:44:07;;;;;;;11.23;4.57;;;;;;;;;;5054364;28;20064;-34
2023/01/03 05:46:34;;;;;;;14.68;3.92;;;;;;;;;;5055287;28;20029;-34
2023/01/03 05:49:04;;;;;;;16.05;4.72;;;;;;;;;;5054821;28;20029;-43
2023/01/03 05:51:31;;;;;;;14.40;4.45;;;;;;;;;;5055554;28;20101;-34
2023/01/03 05:53:58;;;;;;;13.70;4.55;;;;;;;;;;5050853;28;20175;-34
2023/01/03 05:56:25;;;;;;;8.65;3.83;;;;;;;;;;5035551;28;20483;-34
2023/01/03 05:58:52;;;;;;;8.85;2.75;;;;;;;;;;5035370;28;20136;-34
2023/01/03 06:01:19;;;;;;;7.18;2.10;;;;;;;;;;5038371;28;20495;-34
2023/01/03 06:03:47;;;;;;;5.07;1.60;;;;;;;;;;5037001;28;20391;-34
2023/01/03 06:06:14;;;;;;;4.97;1.08;;;;;;;;;;5055293;28;20031;-34
2023/01/03 06:08:41;;;;;;;1.95;0.73;;;;;;;;;;5054545;28;20384;-34
2023/01/03 06:11:13;;;;;;;5.50;0.90;;;;;;;;;;5055131;28;20028;-33
2023/01/03 06:13:40;;;;;;;2.67;1.00;;;;;;;;;;5055165;28;20029;-34
2023/01/03 06:18:54;;;;;;;4.28;0.70;;;;;;;;;;5030737;28;20102;-34
2023/01/03 06:21:22;;;;;;;3.58;0.70;;;;;;;;;;5032473;28;20025;-35
2023/01/03 06:23:49;;;;;;;2.25;0.68;;;;;;;;;;5048197;28;20071;-34
2023/01/03 06:26:17;;;;;;;5.78;0.68;;;;;;;;;;5053674;28;20116;-34
2023/01/03 06:28:44;;;;;;;4.20;0.50;;;;;;;;;;5054825;28;20036;-34
2023/01/03 06:31:11;;;;;;;2.80;0.57;;;;;;;;;;5054727;28;20746;-34
2023/01/03 06:33:39;;;;;;;1.92;0.60;;;;;;;;;;5054721;28;20479;-34
2023/01/03 06:36:07;;;;;;;9.52;0.65;;;;;;;;;;5052612;28;20033;-33
2023/01/03 06:38:35;;;;;;;8.80;0.70;;;;;;;;;;5054111;28;20048;-34
2023/01/03 06:41:02;;;;;;;3.50;0.47;;;;;;;;;;5054507;28;20112;-33
2023/01/03 06:43:29;;;;;;;4.03;0.50;;;;;;;;;;5054674;28;20037;-34
2023/01/03 06:54:24;;;;;;;7.28;0.57;;;;;;;;;;5054358;28;20039;-33
2023/01/03 06:56:51;;;;;;;6.10;0.80;;;;;;;;;;5041571;28;20056;-34
2023/01/03 06:59:18;;;;;;;6.70;0.65;;;;;;;;;;5034313;28;20084;-34
2023/01/03 07:01:46;;;;;;;2.08;0.40;;;;;;;;;;5034366;28;20030;-33
2023/01/03 07:04:13;;;;;;;2.97;0.90;;;;;;;;;;5033029;28;20051;-34
2023/01/03 07:06:41;;;;;;;7.72;0.80;;;;;;;;;;5052014;28;20056;-34
2023/01/03 07:09:08;;;;;;;9.30;0.90;;;;;;;;;;5039911;28;20487;-34
2023/01/03 07:11:35;;;;;;;3.15;0.88;;;;;;;;;;5034072;28;20029;-34
2023/01/03 07:14:03;;;;;;;4.15;0.70;;;;;;;;;;5033983;28;20065;-33
2023/01/03 07:16:32;;;;;;;1.38;0.50;;;;;;;;;;5034120;28;20030;-34
2023/01/03 07:18:59;;;;;;;4.78;0.63;;;;;;;;;;5044724;28;20036;-34
2023/01/03 07:21:27;;;;;;;4.88;0.77;;;;;;;;;;5052400;28;20037;-34
2023/01/03 07:23:55;;;;;;;3.10;0.50;;;;;;;;;;5053856;28;20028;-34
2023/01/03 07:26:23;;;;;;;6.05;0.60;;;;;;;;;;5053852;28;20112;-34
2023/01/03 07:28:50;;;;;;;3.80;0.50;;;;;;;;;;5051522;28;20100;-34
2023/01/03 07:31:17;;;;;;;4.20;0.45;;;;;;;;;;5053701;28;20032;-34
2023/01/03 07:33:44;;;;;;;6.63;0.50;;;;;;;;;;5053574;28;20033;-34
2023/01/03 07:36:12;;;;;;;2.42;0.45;;;;;;;;;;5052566;28;20056;-33
2023/01/03 07:38:40;;;;;;;1.88;0.35;;;;;;;;;;5050623;28;20032;-34
2023/01/03 07:41:07;;;;;;;2.40;0.40;;;;;;;;;;5026457;28;20037;-34
2023/01/03 07:43:38;;;;;;;3.75;0.50;;;;;;;;;;5032209;28;20040;-34
2023/01/03 07:46:10;;;;;;;2.97;0.68;;;;;;;;;;5032546;28;20072;-34
2023/01/03 07:48:37;;;;;;;2.67;0.90;;;;;;;;;;5046327;28;20125;-34
2023/01/03 07:51:05;;;;;;;4.63;1.00;;;;;;;;;;5032256;28;20701;-34
2023/01/03 07:53:32;;;;;;;4.75;0.85;;;;;;;;;;5033259;28;20029;-34
2023/01/03 07:56:06;;;;;;;1.95;0.60;;;;;;;;;;5034058;28;20021;-34
2023/01/03 07:58:34;;;;;;;2.83;0.60;;;;;;;;;;5033203;28;20033;-34
2023/01/03 08:01:07;;;;;;;5.20;0.65;;;;;;;;;;5033062;28;20025;-34
2023/01/03 08:03:35;;;;;;;4.13;0.40;;;;;;;;;;5033242;28;20041;-34
2023/01/03 08:06:03;;;;;;;4.70;0.77;;;;;;;;;;5038251;28;20067;-34
2023/01/03 08:08:30;;;;;;;1.70;0.43;;;;;;;;;;5051151;28;20112;-34
2023/01/03 08:13:44;;;;;;;2.72;0.40;;;;;;;;;;5052837;28;20044;-34
2023/01/03 08:16:11;;;;;;;5.70;0.55;;;;;;;;;;5042700;28;20124;-34
2023/01/03 08:18:40;;;;;;;2.95;0.50;;;;;;;;;;5032877;28;20025;-34
2023/01/03 08:21:08;;;;;;;1.90;0.52;;;;;;;;;;5032795;28;20040;-34
2023/01/03 08:23:35;;;;;;;3.75;0.40;;;;;;;;;;5032758;28;20029;-34
2023/01/03 08:26:02;;;;;;;4.25;0.63;;;;;;;;;;5039744;28;20029;-34
2023/01/03 08:28:29;;;;;;;1.83;0.63;;;;;;;;;;5052561;28;20184;-34
2023/01/03 08:30:56;;;;;;;4.72;0.95;;;;;;;;;;5052565;28;20403;-34
2023/01/03 08:33:23;;;;;;;4.32;1.40;;;;;;;;;;5052526;28;20513;-33
2023/01/03 08:35:52;;;;;;;7.07;2.20;;;;;;;;;;5044388;28;20025;-33
2023/01/03 08:38:22;;;;;;;5.68;2.58;;;;;;;;;;5032510;28;20491;-33
2023/01/03 08:40:49;;;;;;;5.40;3.00;;;;;;;;;;5032591;28;20022;-34
2023/01/03 08:43:17;;;;;;;9.60;2.90;;;;;;;;;;5032527;28;20036;-34
2023/01/03 08:45:44;;;;;;;6.82;2.58;;;;;;;;;;5032111;28;20053;-33
2023/01/03 08:48:11;;;;;;;7.28;2.72;;;;;;;;;;5027391;28;20040;-35
2023/01/03 08:50:38;;;;;;;6.40;2.55;;;;;;;;;;5031389;28;20064;-34
2023/01/03 08:53:05;;;;;;;9.82;3.00;;;;;;;;;;5030711;28;20387;-34
2023/01/03 08:55:33;;;;;;;13.20;3.70;;;;;;;;;;5032226;28;20022;-34
2023/01/03 08:58:00;;;;;;;8.45;3.90;;;;;;;;;;5032095;28;20033;-33
2023/01/03 09:00:28;;;;;;;12.13;4.70;;;;;;;;;;5034138;28;20028;-33
2023/01/03 09:02:58;;;;;;;10.20;4.25;;;;;;;;;;5034716;28;20542;-33
2023/01/03 09:05:26;;;;;;;10.55;3.00;;;;;;;;;;5032012;28;20480;-33
2023/01/03 09:07:53;;;;;;;5.47;1.90;;;;;;;;;;5032219;28;20029;-33
2023/01/03 09:10:21;;;;;;;3.53;1.10;;;;;;;;;;5031928;28;20024;-34
2023/01/03 09:12:47;;;;;;;19.77;1.40;;;;;;;;;;5031936;28;20041;-33
2023/01/03 09:15:14;;;;;;;7.80;1.20;;;;;;;;;;5032048;28;20057;-33
2023/01/03 09:17:43;;;;;;;4.90;0.90;;;;;;;;;;5032093;28;20049;-33
2023/01/03 09:20:11;;;;;;;5.55;0.60;;;;;;;;;;5046598;28;20071;-33
2023/01/03 09:22:38;;;;;;;5.43;0.80;;;;;;;;;;5032567;28;20029;-33
2023/01/03 09:25:05;;;;;;;3.97;0.60;;;;;;;;;;5031879;28;20427;-33
2023/01/03 09:27:32;;;;;;;7.03;0.75;;;;;;;;;;5031932;28;20030;-33
2023/01/03 09:29:59;;;;;;;4.45;0.80;;;;;;;;;;5031830;28;20112;-33
2023/01/03 09:32:26;;;;;;;3.88;0.50;;;;;;;;;;5044771;28;20028;-33
2023/01/03 09:34:53;;;;;;;9.05;0.93;;;;;;;;;;5036818;28;20492;-33
2023/01/03 09:37:20;;;;;;;1.95;0.60;;;;;;;;;;5031794;28;20026;-34
2023/01/03 09:39:47;;;;;;;13.65;1.08;;;;;;;;;;5031688;28;20482;-33
2023/01/03 09:45:03;;;;;;;1.92;0.70;;;;;;;;;;5032048;28;20068;-33
2023/01/03 09:47:34;;;;;;;3.90;0.65;;;;;;;;;;5030401;28;20080;-33
2023/01/03 09:50:01;;;;;;;7.03;1.00;;;;;;;;;;5026047;28;20039;-34
2023/01/03 10:04:04;;;;;;;10.25;2.80;;;;;;;;;;5051458;28;20044;-33
2023/01/03 10:06:31;;;;;;;8.18;2.83;;;;;;;;;;5051259;28;20076;-33
2023/01/03 10:09:07;;;;;;;11.52;2.70;;;;;;;;;;5051562;28;20033;-33
2023/01/03 10:12:12;;;;;;;11.57;3.15;;;;;;;;;;5051598;28;20379;-33
2023/01/03 10:15:05;;;;;;;17.98;3.28;;;;;;;;;;4973955;28;20038;-33
2023/01/03 10:17:31;;;;;;;;;;;;;;;;;;4953008;28;20035;-33
2023/01/03 10:19:58;;;;;;;22.02;2.92;;;;;;;;;;5027550;28;19912;-33
2023/01/03 10:22:29;;;;;;;16.05;2.83;;;;;;;;;;5043741;28;20108;-33
2023/01/03 10:25:05;;;;;;;8.82;1.90;;;;;;;;;;5035812;28;20029;-33
2023/01/03 10:27:34;;;;;;;6.78;1.50;;;;;;;;;;5034919;28;20454;-33
2023/01/03 10:30:02;;;;;;;7.30;1.10;;;;;;;;;;5034734;28;20480;-33
2023/01/03 10:32:48;;;;;;;6.40;0.95;;;;;;;;;;5041356;28;20067;-33
2023/01/03 10:35:44;;;;;;;9.05;0.98;;;;;;;;;;5050836;28;20048;-33
2023/01/03 10:38:11;;;;;;;5.65;0.93;;;;;;;;;;5034760;28;20049;-34
2023/01/03 10:40:45;;;;;;;11.55;0.90;;;;;;;;;;5051405;28;20020;-34
2023/01/03 10:43:15;;;;;;;14.15;1.17;;;;;;;;;;5054660;28;20082;-34
2023/01/03 10:45:54;;;;;;;9.02;0.70;;;;;;;;;;5049536;28;20068;-34
2023/01/03 10:48:21;;;;;;;8.27;0.73;;;;;;;;;;5034665;28;20040;-34
2023/01/03 10:50:49;;;;;;;8.57;0.70;;;;;;;;;;5034830;28;20381;-33
2023/01/03 10:53:19;;;;;;;9.00;0.90;;;;;;;;;;5037359;28;20045;-34
2023/01/03 10:55:54;;;;;;;8.15;0.63;;;;;;;;;;5033363;28;20091;-34
2023/01/03 10:58:21;;;;;;;23.52;1.95;;;;;;;;;;5030282;28;20037;-34
2023/01/03 11:00:48;;;;;;;13.75;1.27;;;;;;;;;;5033671;28;20124;-34
2023/01/03 11:03:17;;;;;;;10.43;0.93;;;;;;;;;;5035504;28;20579;-34
2023/01/03 11:06:07;;;;;;;12.90;1.15;;;;;;;;;;5045753;28;20024;-34
2023/01/03 11:08:47;;;;;;;9.00;1.17;;;;;;;;;;5037680;28;20036;-33
2023/01/03 11:11:32;;;;;;;12.18;1.10;;;;;;;;;;5052221;28;20116;-33
2023/01/03 11:14:16;;;;;;;25.60;2.00;;;;;;;;;;5053548;28;20025;-34
2023/01/03 11:16:43;;;;;;;14.75;1.08;;;;;;;;;;5050388;28;20029;-33
2023/01/03 11:19:16;;;;;;;76.75;3.85;;;;;;;;;;5049246;28;20029;-31
2023/01/03 11:21:42;;;;;;;;;;;;;;;;;;5053026;28;20033;-30
2023/01/03 11:24:27;;;;;;;59.60;5.35;;;;;;;;;;5053563;28;19909;-31
2023/01/03 11:27:01;;;;;;;30.88;2.83;;;;;;;;;;5052829;28;20039;-35
2023/01/03 11:29:40;;;;;;;35.08;3.33;;;;;;;;;;5038833;28;20041;-33
2023/01/03 11:32:07;;;;;;;19.52;2.00;;;;;;;;;;5033510;28;20069;-34
2023/01/03 11:34:51;;;;;;;13.65;1.23;;;;;;;;;;5033452;28;20029;-44
2023/01/03 11:37:18;;;;;;;6.95;0.90;;;;;;;;;;5042283;28;20064;-45
2023/01/03 11:39:57;;;;;;;32.92;2.13;;;;;;;;;;5035542;28;20026;-36
2023/01/03 11:42:36;;;;;;;18.45;1.73;;;;;;;;;;5038718;28;20431;-44
2023/01/03 11:45:04;;;;;;;20.15;1.83;;;;;;;;;;5043025;28;20072;-39
2023/01/03 11:47:40;;;;;;;20.58;2.10;;;;;;;;;;5036312;28;20037;-40
2023/01/03 11:50:14;;;;;;;20.52;1.85;;;;;;;;;;5044808;28;20047;-43
2023/01/03 11:52:41;;;;;;;12.52;1.10;;;;;;;;;;5045113;28;20134;-45
2023/01/03 11:55:14;;;;;;;19.58;1.52;;;;;;;;;;5038033;28;20539;-37
2023/01/03 11:58:01;;;;;;;20.63;1.48;;;;;;;;;;5027605;28;20033;-43
2023/01/03 12:00:31;;;;;;;9.90;1.10;;;;;;;;;;5031297;28;20058;-41
2023/01/03 12:02:58;;;;;;;11.32;1.10;;;;;;;;;;5047152;28;20094;-40
2023/01/03 12:05:28;;;;;;;6.90;0.95;;;;;;;;;;5048559;28;20024;-39
2023/01/03 12:08:01;;;;;;;8.15;0.90;;;;;;;;;;5043093;28;20028;-37
2023/01/03 12:10:46;;;;;;;9.10;0.80;;;;;;;;;;5033940;28;20579;-46
2023/01/03 12:13:30;;;;;;;9.25;0.80;;;;;;;;;;5032706;28;20049;-47
2023/01/03 12:16:07;;;;;;;3.58;0.65;;;;;;;;;;5032201;28;20033;-44
2023/01/03 12:18:37;;;;;;;6.72;0.80;;;;;;;;;;5050531;28;20149;-40
2023/01/03 12:21:13;;;;;;;3.78;0.73;;;;;;;;;;5036825;28;20034;-36
2023/01/03 12:23:46;;;;;;;7.95;0.80;;;;;;;;;;5032410;28;20112;-38
2023/01/03 12:26:14;;;;;;;10.25;0.85;;;;;;;;;;5030579;28;20030;-37
2023/01/03 12:28:42;;;;;;;5.60;0.70;;;;;;;;;;5043915;28;20090;-37
2023/01/03 12:31:21;;;;;;;4.55;0.65;;;;;;;;;;5051134;28;20028;-35
2023/01/03 12:34:00;;;;;;;2.08;0.43;;;;;;;;;;5040820;28;20037;-36
2023/01/03 12:36:33;;;;;;;17.98;1.30;;;;;;;;;;5041785;28;20037;-36
2023/01/03 12:39:00;;;;;;;7.15;0.68;;;;;;;;;;5042509;28;20052;-34
2023/01/03 12:42:00;;;;;;;7.13;0.60;;;;;;;;;;5034742;28;20025;-34
2023/01/03 12:44:39;;;;;;;6.55;0.65;;;;;;;;;;5015009;28;20045;-34
2023/01/03 12:47:12;;;;;;;13.82;1.00;;;;;;;;;;5035132;28;20025;-35
2023/01/03 12:49:45;;;;;;;11.27;1.10;;;;;;;;;;5042680;28;20049;-33
2023/01/03 12:52:15;;;;;;;16.30;1.25;;;;;;;;;;5032413;28;20060;-34
2023/01/03 12:55:08;;;;;;;13.63;1.55;;;;;;;;;;5040269;28;20494;-40
2023/01/03 12:57:36;;;;;;;12.73;1.65;;;;;;;;;;5037833;28;20095;-44
2023/01/03 13:00:06;;;;;;;17.00;1.80;;;;;;;;;;5047768;28;20044;-44
2023/01/03 13:03:06;;;;;;;16.00;1.42;;;;;;;;;;5046761;28;20034;-41
2023/01/03 13:05:33;;;;;;;17.25;1.45;;;;;;;;;;5015906;28;20058;-39
2023/01/03 13:08:18;;;;;;;23.15;1.60;;;;;;;;;;5045308;28;20025;-45
2023/01/03 13:10:47;;;;;;;20.77;2.10;;;;;;;;;;5042034;28;20053;-40
2023/01/03 13:16:21;;;;;;;18.08;2.13;;;;;;;;;;5034256;22;20721;-46
2023/01/03 13:18:48;;;;;;;8.55;1.25;;;;;;;;;;5042534;28;20402;-38
2023/01/03 13:21:33;;;;;;;10.80;0.98;;;;;;;;;;5066020;28;20025;-37
2023/01/03 13:24:00;;;;;;;10.63;1.10;;;;;;;;;;5045303;28;20016;-37
2023/01/03 13:26:28;;;;;;;13.77;1.02;;;;;;;;;;5069244;28;20398;-38
2023/01/03 13:29:15;;;;;;;11.43;1.20;;;;;;;;;;5068419;28;20040;-38
2023/01/03 13:31:42;;;;;;;9.18;1.17;;;;;;;;;;5001640;28;20040;-38
2023/01/03 13:34:12;;;;;;;10.18;1.20;;;;;;;;;;5061016;28;20052;-38
2023/01/03 13:36:58;;;;;;;10.35;1.30;;;;;;;;;;5058456;28;20401;-37
2023/01/03 13:39:46;;;;;;;12.65;1.40;;;;;;;;;;5032111;28;20076;-37
2023/01/03 13:42:19;;;;;;;9.32;1.05;;;;;;;;;;5032496;28;20034;-37
2023/01/03 13:44:46;;;;;;;13.32;1.08;;;;;;;;;;5028157;28;20041;-42
2023/01/03 13:47:24;;;;;;;10.73;1.58;;;;;;;;;;5031058;28;20037;-37
2023/01/03 13:49:51;;;;;;;7.07;1.40;;;;;;;;;;5031941;28;20064;-37
2023/01/03 13:52:37;;;;;;;6.55;1.27;;;;;;;;;;5031903;28;20072;-38
2023/01/03 13:55:05;;;;;;;12.13;1.63;;;;;;;;;;5031887;28;20049;-41
2023/01/03 13:57:36;;;;;;;51.72;3.88;;;;;;;;;;5031471;28;20037;-40
2023/01/03 14:00:04;;;;;;;9.27;2.80;;;;;;;;;;5030040;28;20045;-38
2023/01/03 14:02:47;;;;;;;12.45;3.50;;;;;;;;;;5032999;28;20179;-39
2023/01/03 14:05:32;;;;;;;19.27;6.55;;;;;;;;;;5033112;28;20132;-47
2023/01/03 14:08:04;;;;;;;17.00;5.07;;;;;;;;;;5029513;28;20040;-45
2023/01/03 14:10:40;;;;;;;17.90;4.82;;;;;;;;;;5031820;28;20039;-43
2023/01/03 14:13:25;;;;;;;13.75;3.55;;;;;;;;;;5032502;28;20045;-37
2023/01/03 14:16:05;;;;;;;15.07;3.15;;;;;;;;;;5020775;28;20068;-37
2023/01/03 14:18:33;;;;;;;8.13;2.40;;;;;;;;;;5031060;28;20115;-39
2023/01/03 14:21:01;;;;;;;5.80;2.88;;;;;;;;;;5031403;28;20048;-39
2023/01/03 14:23:29;;;;;;;7.40;2.70;;;;;;;;;;5032144;28;20063;-37
2023/01/03 14:26:03;;;;;;;9.48;2.67;;;;;;;;;;5037594;28;20098;-46
2023/01/03 14:28:32;;;;;;;13.57;2.70;;;;;;;;;;5031388;28;20037;-51
2023/01/03 14:31:07;;;;;;;7.78;3.08;;;;;;;;;;5032757;28;20051;-39
2023/01/03 14:33:36;;;;;;;9.90;2.53;;;;;;;;;;5030835;28;20183;-37
2023/01/03 14:36:08;;;;;;;16.30;3.40;;;;;;;;;;5031127;28;20060;-40
2023/01/03 14:38:36;;;;;;;14.17;3.20;;;;;;;;;;5029316;28;20056;-37
2023/01/03 14:41:03;;;;;;;14.27;2.50;;;;;;;;;;5031833;28;20052;-37
2023/01/03 14:43:31;;;;;;;16.38;2.55;;;;;;;;;;5033369;28;20037;-37
2023/01/03 14:46:08;;;;;;;11.45;2.20;;;;;;;;;;5031880;28;20021;-36
2023/01/03 14:48:35;;;;;;;9.93;1.98;;;;;;;;;;5030014;28;20033;-47
2023/01/03 14:51:03;;;;;;;11.50;2.05;;;;;;;;;;5031663;28;21366;-46
2023/01/03 14:53:32;;;;;;;18.73;2.35;;;;;;;;;;5031244;28;20045;-36
2023/01/03 14:56:00;;;;;;;7.35;1.08;;;;;;;;;;5029174;28;20140;-37
2023/01/03 14:58:31;;;;;;;13.93;1.30;;;;;;;;;;5030218;28;20044;-35
2023/01/03 15:00:59;;;;;;;11.63;1.20;;;;;;;;;;5032057;28;20818;-37
2023/01/03 15:03:28;;;;;;;26.67;3.78;;;;;;;;;;5030766;28;20477;-41
2023/01/03 15:05:58;;;;;;;19.25;3.70;;;;;;;;;;5030989;28;20052;-37
2023/01/03 15:08:26;;;;;;;27.80;4.13;;;;;;;;;;5033923;28;20481;-41
2023/01/03 15:10:58;;;;;;;12.25;3.00;;;;;;;;;;5031823;28;20047;-36
2023/01/03 15:13:37;;;;;;;15.43;2.33;;;;;;;;;;5031727;28;20068;-38
2023/01/03 15:16:25;;;;;;;10.80;1.38;;;;;;;;;;5029318;28;21490;-40
2023/01/03 15:18:58;;;;;;;15.68;2.03;;;;;;;;;;5028424;28;20036;-37
2023/01/03 15:21:25;;;;;;;13.27;2.10;;;;;;;;;;5030834;28;20370;-37
2023/01/03 15:23:54;;;;;;;9.82;1.42;;;;;;;;;;5028570;28;20052;-37
2023/01/03 15:26:23;;;;;;;11.85;2.10;;;;;;;;;;5030360;28;20883;-38
2023/01/03 15:29:05;;;;;;;22.55;3.72;;;;;;;;;;5028727;28;20041;-45
2023/01/03 15:31:32;;;;;;;;;;;;;;;;;;5033582;28;20039;-39
2023/01/03 15:34:17;;;;;;;13.23;2.15;;;;;;;;;;5029905;28;19932;-43
2023/01/03 15:37:02;;;;;;;22.90;3.28;;;;;;;;;;5029017;28;20080;-43
2023/01/03 15:39:36;;;;;;;18.90;2.95;;;;;;;;;;5029822;28;20036;-38
2023/01/03 15:44:49;;;;;;;18.42;2.80;;;;;;;;;;5043695;28;20043;-34
2023/01/03 15:47:17;;;;;;;9.55;2.38;;;;;;;;;;5057728;28;20032;-39
2023/01/03 15:49:47;;;;;;;17.83;3.00;;;;;;;;;;5057507;28;20083;-35
2023/01/03 15:52:14;;;;;;;16.13;2.55;;;;;;;;;;5054101;28;20047;-34
2023/01/03 15:54:42;;;;;;;16.55;3.17;;;;;;;;;;5044816;28;20037;-36
2023/01/03 15:57:19;;;;;;;21.88;3.33;;;;;;;;;;5063447;28;20505;-35
2023/01/03 15:59:48;;;;;;;11.77;2.90;;;;;;;;;;5066537;28;20033;-35
2023/01/03 16:02:16;;;;;;;12.98;2.45;;;;;;;;;;5060764;28;20479;-34
2023/01/03 16:04:46;;;;;;;12.32;2.60;;;;;;;;;;5051503;28;20060;-38
2023/01/03 16:07:14;;;;;;;16.60;2.70;;;;;;;;;;5056259;28;20064;-38
2023/01/03 16:09:41;;;;;;;14.30;2.97;;;;;;;;;;5041032;28;20047;-35